sensor_id;sensor_type;location;lat;lon;timestamp;P1;durP1;ratioP1;P2;durP2;ratioP2
29812;SDS011;16707;48.106;11.548;2022-12-07T00:01:14;10.00;;;7.45;;
29812;SDS011;16707;48.106;11.548;2022-12-07T00:03:46;11.60;;;7.40;;
29812;SDS011;16707;48.106;11.548;2022-12-07T00:06:17;9.77;;;7.05;;
29812;SDS011;16707;48.106;11.548;2022-12-07T00:08:46;9.15;;;6.97;;
29812;SDS011;16707;48.106;11.548;2022-12-07T00:11:19;12.13;;;7.07;;
29812;SDS011;16707;48.106;11.548;2022-12-07T00:13:50;9.93;;;6.72;;
29812;SDS011;16707;48.106;11.548;2022-12-07T00:16:18;11.18;;;6.85;;
29812;SDS011;16707;48.106;11.548;2022-12-07T00:18:50;12.13;;;6.93;;
29812;SDS011;16707;48.106;11.548;2022-12-07T00:21:20;8.25;;;6.32;;
29812;SDS011;16707;48.106;11.548;2022-12-07T00:23:49;12.73;;;6.65;;
29812;SDS011;16707;48.106;11.548;2022-12-07T00:26:18;10.40;;;6.03;;
29812;SDS011;16707;48.106;11.548;2022-12-07T00:28:46;11.50;;;7.18;;
29812;SDS011;16707;48.106;11.548;2022-12-07T00:31:15;11.50;;;7.05;;
29812;SDS011;16707;48.106;11.548;2022-12-07T00:33:47;11.82;;;7.80;;
29812;SDS011;16707;48.106;11.548;2022-12-07T00:36:16;12.15;;;7.07;;
29812;SDS011;16707;48.106;11.548;2022-12-07T00:38:47;10.98;;;6.50;;
29812;SDS011;16707;48.106;11.548;2022-12-07T00:41:17;7.78;;;5.55;;
29812;SDS011;16707;48.106;11.548;2022-12-07T00:43:48;10.70;;;6.93;;
29812;SDS011;16707;48.106;11.548;2022-12-07T00:46:17;10.05;;;7.10;;
29812;SDS011;16707;48.106;11.548;2022-12-07T00:48:48;9.95;;;6.78;;
29812;SDS011;16707;48.106;11.548;2022-12-07T00:51:17;9.07;;;6.22;;
29812;SDS011;16707;48.106;11.548;2022-12-07T00:53:45;12.65;;;7.53;;
29812;SDS011;16707;48.106;11.548;2022-12-07T00:56:13;10.55;;;6.18;;
29812;SDS011;16707;48.106;11.548;2022-12-07T00:58:41;11.88;;;6.35;;
29812;SDS011;16707;48.106;11.548;2022-12-07T01:01:09;12.05;;;6.90;;
29812;SDS011;16707;48.106;11.548;2022-12-07T01:03:38;11.65;;;6.72;;
29812;SDS011;16707;48.106;11.548;2022-12-07T01:06:05;11.20;;;6.47;;
29812;SDS011;16707;48.106;11.548;2022-12-07T01:08:32;10.50;;;5.55;;
29812;SDS011;16707;48.106;11.548;2022-12-07T01:11:03;10.52;;;6.72;;
29812;SDS011;16707;48.106;11.548;2022-12-07T01:13:32;9.80;;;6.40;;
29812;SDS011;16707;48.106;11.548;2022-12-07T01:16:00;11.50;;;7.43;;
29812;SDS011;16707;48.106;11.548;2022-12-07T01:18:35;12.35;;;6.43;;
29812;SDS011;16707;48.106;11.548;2022-12-07T01:23:32;11.55;;;6.43;;
29812;SDS011;16707;48.106;11.548;2022-12-07T01:26:05;10.55;;;6.35;;
29812;SDS011;16707;48.106;11.548;2022-12-07T01:28:41;9.85;;;6.20;;
29812;SDS011;16707;48.106;11.548;2022-12-07T01:31:08;9.73;;;6.47;;
29812;SDS011;16707;48.106;11.548;2022-12-07T01:33:37;13.75;;;8.35;;
29812;SDS011;16707;48.106;11.548;2022-12-07T01:36:07;11.98;;;6.95;;
29812;SDS011;16707;48.106;11.548;2022-12-07T01:38:39;9.20;;;5.82;;
29812;SDS011;16707;48.106;11.548;2022-12-07T01:41:06;12.85;;;6.32;;
29812;SDS011;16707;48.106;11.548;2022-12-07T01:43:36;10.80;;;6.38;;
29812;SDS011;16707;48.106;11.548;2022-12-07T01:46:03;10.30;;;6.75;;
29812;SDS011;16707;48.106;11.548;2022-12-07T01:48:31;9.15;;;7.13;;
29812;SDS011;16707;48.106;11.548;2022-12-07T01:51:03;10.35;;;7.15;;
29812;SDS011;16707;48.106;11.548;2022-12-07T01:53:35;10.43;;;6.75;;
29812;SDS011;16707;48.106;11.548;2022-12-07T01:56:10;11.18;;;6.43;;
29812;SDS011;16707;48.106;11.548;2022-12-07T01:58:42;10.57;;;6.45;;
29812;SDS011;16707;48.106;11.548;2022-12-07T02:01:10;9.95;;;6.55;;
29812;SDS011;16707;48.106;11.548;2022-12-07T02:03:39;11.80;;;7.20;;
29812;SDS011;16707;48.106;11.548;2022-12-07T02:06:10;10.20;;;6.97;;
29812;SDS011;16707;48.106;11.548;2022-12-07T02:08:45;10.67;;;6.43;;
29812;SDS011;16707;48.106;11.548;2022-12-07T02:11:16;9.38;;;6.40;;
29812;SDS011;16707;48.106;11.548;2022-12-07T02:13:47;12.55;;;7.15;;
29812;SDS011;16707;48.106;11.548;2022-12-07T02:16:25;10.63;;;7.03;;
29812;SDS011;16707;48.106;11.548;2022-12-07T02:19:10;12.73;;;6.72;;
29812;SDS011;16707;48.106;11.548;2022-12-07T02:21:52;9.13;;;6.10;;
29812;SDS011;16707;48.106;11.548;2022-12-07T02:24:30;10.55;;;7.47;;
29812;SDS011;16707;48.106;11.548;2022-12-07T02:27:28;12.67;;;6.73;;
29812;SDS011;16707;48.106;11.548;2022-12-07T02:30:06;12.20;;;6.75;;
29812;SDS011;16707;48.106;11.548;2022-12-07T02:32:39;11.13;;;7.32;;
29812;SDS011;16707;48.106;11.548;2022-12-07T02:35:15;12.43;;;7.28;;
29812;SDS011;16707;48.106;11.548;2022-12-07T02:37:48;10.68;;;7.15;;
29812;SDS011;16707;48.106;11.548;2022-12-07T02:40:22;11.25;;;6.70;;
29812;SDS011;16707;48.106;11.548;2022-12-07T02:42:55;9.88;;;6.07;;
29812;SDS011;16707;48.106;11.548;2022-12-07T02:45:27;10.25;;;6.88;;
29812;SDS011;16707;48.106;11.548;2022-12-07T02:48:11;13.18;;;7.53;;
29812;SDS011;16707;48.106;11.548;2022-12-07T02:50:45;12.32;;;7.50;;
29812;SDS011;16707;48.106;11.548;2022-12-07T02:53:34;11.25;;;7.05;;
29812;SDS011;16707;48.106;11.548;2022-12-07T02:56:07;10.07;;;6.88;;
29812;SDS011;16707;48.106;11.548;2022-12-07T02:58:49;9.68;;;7.07;;
29812;SDS011;16707;48.106;11.548;2022-12-07T03:01:32;9.73;;;6.97;;
29812;SDS011;16707;48.106;11.548;2022-12-07T03:04:12;10.70;;;7.15;;
29812;SDS011;16707;48.106;11.548;2022-12-07T03:06:48;11.40;;;6.85;;
29812;SDS011;16707;48.106;11.548;2022-12-07T03:09:24;12.27;;;7.28;;
29812;SDS011;16707;48.106;11.548;2022-12-07T03:11:59;11.80;;;7.80;;
29812;SDS011;16707;48.106;11.548;2022-12-07T03:14:38;11.55;;;7.20;;
29812;SDS011;16707;48.106;11.548;2022-12-07T03:17:13;11.63;;;8.00;;
29812;SDS011;16707;48.106;11.548;2022-12-07T03:19:44;10.95;;;7.18;;
29812;SDS011;16707;48.106;11.548;2022-12-07T03:22:15;10.90;;;7.47;;
29812;SDS011;16707;48.106;11.548;2022-12-07T03:24:44;11.77;;;7.15;;
29812;SDS011;16707;48.106;11.548;2022-12-07T03:27:15;12.52;;;7.47;;
29812;SDS011;16707;48.106;11.548;2022-12-07T03:29:47;10.98;;;6.70;;
29812;SDS011;16707;48.106;11.548;2022-12-07T03:32:19;13.55;;;7.85;;
29812;SDS011;16707;48.106;11.548;2022-12-07T03:34:51;13.45;;;7.60;;
29812;SDS011;16707;48.106;11.548;2022-12-07T03:37:28;13.40;;;7.38;;
29812;SDS011;16707;48.106;11.548;2022-12-07T03:40:02;10.98;;;7.55;;
29812;SDS011;16707;48.106;11.548;2022-12-07T03:42:38;10.93;;;7.00;;
29812;SDS011;16707;48.106;11.548;2022-12-07T03:45:07;11.27;;;7.60;;
29812;SDS011;16707;48.106;11.548;2022-12-07T03:47:37;12.25;;;7.70;;
29812;SDS011;16707;48.106;11.548;2022-12-07T03:50:24;12.63;;;8.02;;
29812;SDS011;16707;48.106;11.548;2022-12-07T03:52:58;12.18;;;7.15;;
29812;SDS011;16707;48.106;11.548;2022-12-07T03:55:31;12.30;;;7.00;;
29812;SDS011;16707;48.106;11.548;2022-12-07T03:58:07;12.60;;;7.80;;
29812;SDS011;16707;48.106;11.548;2022-12-07T04:00:37;14.80;;;7.55;;
29812;SDS011;16707;48.106;11.548;2022-12-07T04:03:15;11.90;;;7.55;;
29812;SDS011;16707;48.106;11.548;2022-12-07T04:05:49;11.88;;;7.82;;
29812;SDS011;16707;48.106;11.548;2022-12-07T04:08:16;11.55;;;8.15;;
29812;SDS011;16707;48.106;11.548;2022-12-07T04:10:46;12.18;;;7.90;;
29812;SDS011;16707;48.106;11.548;2022-12-07T04:13:16;12.35;;;8.23;;
29812;SDS011;16707;48.106;11.548;2022-12-07T04:15:43;10.85;;;7.75;;
29812;SDS011;16707;48.106;11.548;2022-12-07T04:18:15;12.90;;;8.05;;
29812;SDS011;16707;48.106;11.548;2022-12-07T04:20:42;12.15;;;8.10;;
29812;SDS011;16707;48.106;11.548;2022-12-07T04:23:09;13.85;;;8.00;;
29812;SDS011;16707;48.106;11.548;2022-12-07T04:25:35;14.10;;;8.35;;
29812;SDS011;16707;48.106;11.548;2022-12-07T04:28:03;12.82;;;8.30;;
29812;SDS011;16707;48.106;11.548;2022-12-07T04:30:33;13.23;;;8.57;;
29812;SDS011;16707;48.106;11.548;2022-12-07T04:32:59;13.07;;;8.75;;
29812;SDS011;16707;48.106;11.548;2022-12-07T04:35:28;11.82;;;8.07;;
29812;SDS011;16707;48.106;11.548;2022-12-07T04:37:55;15.00;;;8.57;;
29812;SDS011;16707;48.106;11.548;2022-12-07T04:40:22;14.55;;;8.80;;
29812;SDS011;16707;48.106;11.548;2022-12-07T04:42:51;20.27;;;9.48;;
29812;SDS011;16707;48.106;11.548;2022-12-07T04:45:19;14.55;;;8.88;;
29812;SDS011;16707;48.106;11.548;2022-12-07T04:47:46;13.85;;;8.75;;
29812;SDS011;16707;48.106;11.548;2022-12-07T04:50:13;12.45;;;7.45;;
29812;SDS011;16707;48.106;11.548;2022-12-07T04:52:42;15.25;;;8.85;;
29812;SDS011;16707;48.106;11.548;2022-12-07T04:55:09;15.52;;;8.75;;
29812;SDS011;16707;48.106;11.548;2022-12-07T04:57:36;12.90;;;8.52;;
29812;SDS011;16707;48.106;11.548;2022-12-07T05:00:08;14.45;;;9.55;;
29812;SDS011;16707;48.106;11.548;2022-12-07T05:02:36;13.13;;;8.23;;
29812;SDS011;16707;48.106;11.548;2022-12-07T05:05:03;12.98;;;8.10;;
29812;SDS011;16707;48.106;11.548;2022-12-07T05:07:30;12.43;;;7.63;;
29812;SDS011;16707;48.106;11.548;2022-12-07T05:09:59;12.50;;;8.15;;
29812;SDS011;16707;48.106;11.548;2022-12-07T05:12:26;14.43;;;9.52;;
29812;SDS011;16707;48.106;11.548;2022-12-07T05:14:53;15.60;;;9.40;;
29812;SDS011;16707;48.106;11.548;2022-12-07T05:17:20;14.10;;;8.35;;
29812;SDS011;16707;48.106;11.548;2022-12-07T05:19:47;14.82;;;8.95;;
29812;SDS011;16707;48.106;11.548;2022-12-07T05:22:14;14.18;;;7.93;;
29812;SDS011;16707;48.106;11.548;2022-12-07T05:24:44;15.68;;;8.68;;
29812;SDS011;16707;48.106;11.548;2022-12-07T05:27:16;15.10;;;8.27;;
29812;SDS011;16707;48.106;11.548;2022-12-07T05:29:43;14.13;;;8.65;;
29812;SDS011;16707;48.106;11.548;2022-12-07T05:32:13;14.40;;;8.75;;
29812;SDS011;16707;48.106;11.548;2022-12-07T05:34:43;15.18;;;8.77;;
29812;SDS011;16707;48.106;11.548;2022-12-07T05:37:11;13.80;;;8.05;;
29812;SDS011;16707;48.106;11.548;2022-12-07T05:39:38;14.68;;;8.35;;
29812;SDS011;16707;48.106;11.548;2022-12-07T05:42:08;13.90;;;8.65;;
29812;SDS011;16707;48.106;11.548;2022-12-07T05:44:42;12.13;;;8.20;;
29812;SDS011;16707;48.106;11.548;2022-12-07T05:47:11;14.35;;;8.73;;
29812;SDS011;16707;48.106;11.548;2022-12-07T05:49:39;15.00;;;8.07;;
29812;SDS011;16707;48.106;11.548;2022-12-07T05:52:06;13.50;;;9.00;;
29812;SDS011;16707;48.106;11.548;2022-12-07T05:54:34;14.85;;;9.25;;
29812;SDS011;16707;48.106;11.548;2022-12-07T05:57:04;14.70;;;8.30;;
29812;SDS011;16707;48.106;11.548;2022-12-07T05:59:33;14.73;;;8.90;;
29812;SDS011;16707;48.106;11.548;2022-12-07T06:02:02;13.63;;;9.00;;
29812;SDS011;16707;48.106;11.548;2022-12-07T06:04:31;14.65;;;8.93;;
29812;SDS011;16707;48.106;11.548;2022-12-07T06:07:03;17.50;;;9.13;;
29812;SDS011;16707;48.106;11.548;2022-12-07T06:09:30;14.80;;;8.93;;
29812;SDS011;16707;48.106;11.548;2022-12-07T06:11:58;15.50;;;9.18;;
29812;SDS011;16707;48.106;11.548;2022-12-07T06:17:16;16.15;;;9.48;;
29812;SDS011;16707;48.106;11.548;2022-12-07T06:19:43;16.35;;;9.52;;
29812;SDS011;16707;48.106;11.548;2022-12-07T06:22:10;17.33;;;10.25;;
29812;SDS011;16707;48.106;11.548;2022-12-07T06:24:38;14.45;;;9.75;;
29812;SDS011;16707;48.106;11.548;2022-12-07T06:27:05;15.10;;;9.32;;
29812;SDS011;16707;48.106;11.548;2022-12-07T06:29:32;16.15;;;10.20;;
29812;SDS011;16707;48.106;11.548;2022-12-07T06:32:02;13.85;;;8.77;;
29812;SDS011;16707;48.106;11.548;2022-12-07T06:34:31;15.30;;;9.15;;
29812;SDS011;16707;48.106;11.548;2022-12-07T06:36:58;17.75;;;9.15;;
29812;SDS011;16707;48.106;11.548;2022-12-07T06:39:28;14.95;;;8.68;;
29812;SDS011;16707;48.106;11.548;2022-12-07T06:41:56;16.58;;;9.57;;
29812;SDS011;16707;48.106;11.548;2022-12-07T06:44:26;15.93;;;8.38;;
29812;SDS011;16707;48.106;11.548;2022-12-07T06:46:56;13.55;;;8.80;;
29812;SDS011;16707;48.106;11.548;2022-12-07T06:49:27;16.08;;;10.45;;
29812;SDS011;16707;48.106;11.548;2022-12-07T06:51:57;16.90;;;9.68;;
29812;SDS011;16707;48.106;11.548;2022-12-07T06:54:29;14.77;;;9.18;;
29812;SDS011;16707;48.106;11.548;2022-12-07T06:56:56;15.05;;;8.52;;
29812;SDS011;16707;48.106;11.548;2022-12-07T06:59:23;14.48;;;9.05;;
29812;SDS011;16707;48.106;11.548;2022-12-07T07:01:50;16.98;;;9.02;;
29812;SDS011;16707;48.106;11.548;2022-12-07T07:04:18;14.57;;;8.52;;
29812;SDS011;16707;48.106;11.548;2022-12-07T07:06:45;16.30;;;8.65;;
29812;SDS011;16707;48.106;11.548;2022-12-07T07:09:18;12.90;;;8.05;;
29812;SDS011;16707;48.106;11.548;2022-12-07T07:11:45;15.82;;;8.88;;
29812;SDS011;16707;48.106;11.548;2022-12-07T07:14:13;15.35;;;8.65;;
29812;SDS011;16707;48.106;11.548;2022-12-07T07:16:43;13.90;;;8.02;;
29812;SDS011;16707;48.106;11.548;2022-12-07T07:19:10;12.50;;;8.77;;
29812;SDS011;16707;48.106;11.548;2022-12-07T07:21:38;16.98;;;9.02;;
29812;SDS011;16707;48.106;11.548;2022-12-07T07:24:10;15.55;;;8.10;;
29812;SDS011;16707;48.106;11.548;2022-12-07T07:26:39;14.18;;;8.02;;
29812;SDS011;16707;48.106;11.548;2022-12-07T07:29:06;15.52;;;9.65;;
29812;SDS011;16707;48.106;11.548;2022-12-07T07:31:32;13.95;;;8.05;;
29812;SDS011;16707;48.106;11.548;2022-12-07T07:34:00;14.25;;;9.15;;
29812;SDS011;16707;48.106;11.548;2022-12-07T07:36:27;16.30;;;8.98;;
29812;SDS011;16707;48.106;11.548;2022-12-07T07:39:02;15.18;;;8.98;;
29812;SDS011;16707;48.106;11.548;2022-12-07T07:41:33;14.52;;;8.60;;
29812;SDS011;16707;48.106;11.548;2022-12-07T07:44:01;15.20;;;9.07;;
29812;SDS011;16707;48.106;11.548;2022-12-07T07:46:29;15.32;;;9.40;;
29812;SDS011;16707;48.106;11.548;2022-12-07T07:48:58;16.98;;;9.15;;
29812;SDS011;16707;48.106;11.548;2022-12-07T07:51:25;13.57;;;8.93;;
29812;SDS011;16707;48.106;11.548;2022-12-07T07:53:52;12.27;;;8.00;;
29812;SDS011;16707;48.106;11.548;2022-12-07T07:56:19;17.42;;;8.75;;
29812;SDS011;16707;48.106;11.548;2022-12-07T07:58:46;14.45;;;8.57;;
29812;SDS011;16707;48.106;11.548;2022-12-07T08:01:14;17.00;;;8.95;;
29812;SDS011;16707;48.106;11.548;2022-12-07T08:03:41;19.35;;;9.07;;
29812;SDS011;16707;48.106;11.548;2022-12-07T08:06:09;19.33;;;9.35;;
29812;SDS011;16707;48.106;11.548;2022-12-07T08:08:36;21.30;;;10.60;;
29812;SDS011;16707;48.106;11.548;2022-12-07T08:11:04;15.68;;;9.43;;
29812;SDS011;16707;48.106;11.548;2022-12-07T08:13:31;15.75;;;8.38;;
29812;SDS011;16707;48.106;11.548;2022-12-07T08:15:59;15.07;;;8.18;;
29812;SDS011;16707;48.106;11.548;2022-12-07T08:18:31;16.38;;;8.73;;
29812;SDS011;16707;48.106;11.548;2022-12-07T08:21:02;14.63;;;8.23;;
29812;SDS011;16707;48.106;11.548;2022-12-07T08:23:30;14.93;;;8.65;;
29812;SDS011;16707;48.106;11.548;2022-12-07T08:25:59;11.75;;;7.60;;
29812;SDS011;16707;48.106;11.548;2022-12-07T08:28:27;16.92;;;9.32;;
29812;SDS011;16707;48.106;11.548;2022-12-07T08:30:58;14.38;;;8.57;;
29812;SDS011;16707;48.106;11.548;2022-12-07T08:33:26;13.77;;;7.70;;
29812;SDS011;16707;48.106;11.548;2022-12-07T08:36:00;13.60;;;8.65;;
29812;SDS011;16707;48.106;11.548;2022-12-07T08:38:28;14.93;;;8.52;;
29812;SDS011;16707;48.106;11.548;2022-12-07T08:40:58;16.88;;;8.40;;
29812;SDS011;16707;48.106;11.548;2022-12-07T08:43:27;14.82;;;8.65;;
29812;SDS011;16707;48.106;11.548;2022-12-07T08:45:55;14.43;;;9.27;;
29812;SDS011;16707;48.106;11.548;2022-12-07T08:48:29;13.85;;;8.15;;
29812;SDS011;16707;48.106;11.548;2022-12-07T08:50:59;12.07;;;7.30;;
29812;SDS011;16707;48.106;11.548;2022-12-07T08:53:28;12.77;;;8.65;;
29812;SDS011;16707;48.106;11.548;2022-12-07T08:55:56;13.90;;;8.13;;
29812;SDS011;16707;48.106;11.548;2022-12-07T08:58:24;13.95;;;7.82;;
29812;SDS011;16707;48.106;11.548;2022-12-07T09:00:51;15.80;;;8.32;;
29812;SDS011;16707;48.106;11.548;2022-12-07T09:03:18;14.30;;;8.70;;
29812;SDS011;16707;48.106;11.548;2022-12-07T09:05:45;13.82;;;8.40;;
29812;SDS011;16707;48.106;11.548;2022-12-07T09:08:13;12.98;;;8.32;;
29812;SDS011;16707;48.106;11.548;2022-12-07T09:10:41;12.10;;;7.90;;
29812;SDS011;16707;48.106;11.548;2022-12-07T09:13:08;12.05;;;8.00;;
29812;SDS011;16707;48.106;11.548;2022-12-07T09:15:38;13.40;;;8.35;;
29812;SDS011;16707;48.106;11.548;2022-12-07T09:18:05;12.77;;;8.10;;
29812;SDS011;16707;48.106;11.548;2022-12-07T09:20:32;11.60;;;7.80;;
29812;SDS011;16707;48.106;11.548;2022-12-07T09:22:59;11.38;;;7.85;;
29812;SDS011;16707;48.106;11.548;2022-12-07T09:25:27;12.35;;;7.65;;
29812;SDS011;16707;48.106;11.548;2022-12-07T09:27:55;12.82;;;7.47;;
29812;SDS011;16707;48.106;11.548;2022-12-07T09:30:22;14.50;;;7.95;;
29812;SDS011;16707;48.106;11.548;2022-12-07T09:32:50;10.55;;;7.15;;
29812;SDS011;16707;48.106;11.548;2022-12-07T09:35:19;12.18;;;7.68;;
29812;SDS011;16707;48.106;11.548;2022-12-07T09:37:46;13.15;;;7.60;;
29812;SDS011;16707;48.106;11.548;2022-12-07T09:40:13;11.20;;;7.72;;
29812;SDS011;16707;48.106;11.548;2022-12-07T09:42:43;10.20;;;6.85;;
29812;SDS011;16707;48.106;11.548;2022-12-07T09:45:14;11.93;;;7.80;;
29812;SDS011;16707;48.106;11.548;2022-12-07T09:47:42;11.90;;;7.80;;
29812;SDS011;16707;48.106;11.548;2022-12-07T09:50:12;12.73;;;7.55;;
29812;SDS011;16707;48.106;11.548;2022-12-07T09:52:41;11.73;;;7.63;;
29812;SDS011;16707;48.106;11.548;2022-12-07T09:55:14;13.15;;;7.35;;
29812;SDS011;16707;48.106;11.548;2022-12-07T09:57:46;12.68;;;7.68;;
29812;SDS011;16707;48.106;11.548;2022-12-07T10:00:14;9.77;;;6.50;;
29812;SDS011;16707;48.106;11.548;2022-12-07T10:02:47;12.18;;;7.20;;
29812;SDS011;16707;48.106;11.548;2022-12-07T10:05:18;11.35;;;7.40;;
29812;SDS011;16707;48.106;11.548;2022-12-07T10:07:47;10.90;;;7.63;;
29812;SDS011;16707;48.106;11.548;2022-12-07T10:10:15;9.95;;;7.25;;
29812;SDS011;16707;48.106;11.548;2022-12-07T10:12:54;15.13;;;8.13;;
29812;SDS011;16707;48.106;11.548;2022-12-07T10:15:36;10.82;;;6.65;;
29812;SDS011;16707;48.106;11.548;2022-12-07T10:18:17;10.70;;;6.85;;
29812;SDS011;16707;48.106;11.548;2022-12-07T10:20:46;11.27;;;6.47;;
29812;SDS011;16707;48.106;11.548;2022-12-07T10:23:14;10.88;;;7.20;;
29812;SDS011;16707;48.106;11.548;2022-12-07T10:25:43;10.80;;;6.18;;
29812;SDS011;16707;48.106;11.548;2022-12-07T10:28:16;10.55;;;6.68;;
29812;SDS011;16707;48.106;11.548;2022-12-07T10:30:48;9.00;;;6.05;;
29812;SDS011;16707;48.106;11.548;2022-12-07T10:33:33;9.88;;;5.82;;
29812;SDS011;16707;48.106;11.548;2022-12-07T10:36:16;11.32;;;6.72;;
29812;SDS011;16707;48.106;11.548;2022-12-07T10:38:47;9.68;;;5.63;;
29812;SDS011;16707;48.106;11.548;2022-12-07T10:41:17;10.02;;;6.03;;
29812;SDS011;16707;48.106;11.548;2022-12-07T10:43:50;9.00;;;6.03;;
29812;SDS011;16707;48.106;11.548;2022-12-07T10:46:40;7.50;;;4.93;;
29812;SDS011;16707;48.106;11.548;2022-12-07T10:49:24;7.90;;;5.05;;
29812;SDS011;16707;48.106;11.548;2022-12-07T10:52:11;8.48;;;5.47;;
29812;SDS011;16707;48.106;11.548;2022-12-07T10:54:51;9.15;;;4.90;;
29812;SDS011;16707;48.106;11.548;2022-12-07T10:57:37;7.97;;;5.20;;
29812;SDS011;16707;48.106;11.548;2022-12-07T11:00:15;7.45;;;4.90;;
29812;SDS011;16707;48.106;11.548;2022-12-07T11:02:58;8.32;;;5.88;;
29812;SDS011;16707;48.106;11.548;2022-12-07T11:05:38;7.55;;;4.82;;
29812;SDS011;16707;48.106;11.548;2022-12-07T11:08:13;8.63;;;4.88;;
29812;SDS011;16707;48.106;11.548;2022-12-07T11:10:53;5.75;;;4.13;;
29812;SDS011;16707;48.106;11.548;2022-12-07T11:13:28;6.90;;;4.53;;
29812;SDS011;16707;48.106;11.548;2022-12-07T11:16:02;7.70;;;4.72;;
29812;SDS011;16707;48.106;11.548;2022-12-07T11:19:05;6.63;;;4.93;;
29812;SDS011;16707;48.106;11.548;2022-12-07T11:21:48;5.53;;;4.65;;
29812;SDS011;16707;48.106;11.548;2022-12-07T11:24:24;6.75;;;4.75;;
29812;SDS011;16707;48.106;11.548;2022-12-07T11:27:07;5.50;;;3.90;;
29812;SDS011;16707;48.106;11.548;2022-12-07T11:29:44;6.47;;;3.63;;
29812;SDS011;16707;48.106;11.548;2022-12-07T11:32:17;7.88;;;4.00;;
29812;SDS011;16707;48.106;11.548;2022-12-07T11:34:55;7.05;;;4.38;;
29812;SDS011;16707;48.106;11.548;2022-12-07T11:37:31;7.55;;;4.10;;
29812;SDS011;16707;48.106;11.548;2022-12-07T11:40:02;6.72;;;4.40;;
29812;SDS011;16707;48.106;11.548;2022-12-07T11:42:39;6.28;;;4.00;;
29812;SDS011;16707;48.106;11.548;2022-12-07T11:45:13;6.90;;;4.05;;
29812;SDS011;16707;48.106;11.548;2022-12-07T11:47:45;5.65;;;3.65;;
29812;SDS011;16707;48.106;11.548;2022-12-07T11:50:23;5.38;;;3.47;;
29812;SDS011;16707;48.106;11.548;2022-12-07T11:52:57;5.47;;;3.60;;
29812;SDS011;16707;48.106;11.548;2022-12-07T11:55:26;6.22;;;3.80;;
29812;SDS011;16707;48.106;11.548;2022-12-07T11:58:03;8.13;;;4.30;;
29812;SDS011;16707;48.106;11.548;2022-12-07T12:00:40;6.18;;;4.03;;
29812;SDS011;16707;48.106;11.548;2022-12-07T12:03:09;7.35;;;4.63;;
29812;SDS011;16707;48.106;11.548;2022-12-07T12:05:43;6.17;;;4.50;;
29812;SDS011;16707;48.106;11.548;2022-12-07T12:08:15;5.63;;;3.55;;
29812;SDS011;16707;48.106;11.548;2022-12-07T12:10:49;7.18;;;4.38;;
29812;SDS011;16707;48.106;11.548;2022-12-07T12:13:26;6.85;;;4.25;;
29812;SDS011;16707;48.106;11.548;2022-12-07T12:16:30;7.43;;;4.35;;
29812;SDS011;16707;48.106;11.548;2022-12-07T12:19:18;7.32;;;4.60;;
29812;SDS011;16707;48.106;11.548;2022-12-07T12:21:55;7.00;;;4.40;;
29812;SDS011;16707;48.106;11.548;2022-12-07T12:24:27;5.57;;;3.80;;
29812;SDS011;16707;48.106;11.548;2022-12-07T12:27:05;6.00;;;4.18;;
29812;SDS011;16707;48.106;11.548;2022-12-07T12:29:35;7.57;;;4.65;;
29812;SDS011;16707;48.106;11.548;2022-12-07T12:32:05;7.53;;;4.38;;
29812;SDS011;16707;48.106;11.548;2022-12-07T12:34:57;6.00;;;4.43;;
29812;SDS011;16707;48.106;11.548;2022-12-07T12:37:44;8.55;;;4.35;;
29812;SDS011;16707;48.106;11.548;2022-12-07T12:45:48;10.57;;;5.25;;
29812;SDS011;16707;48.106;11.548;2022-12-07T12:48:28;7.35;;;4.75;;
29812;SDS011;16707;48.106;11.548;2022-12-07T12:54:10;9.55;;;5.90;;
29812;SDS011;16707;48.106;11.548;2022-12-07T12:56:42;12.13;;;5.93;;
29812;SDS011;16707;48.106;11.548;2022-12-07T12:59:25;7.85;;;5.57;;
29812;SDS011;16707;48.106;11.548;2022-12-07T13:01:55;9.23;;;5.32;;
29812;SDS011;16707;48.106;11.548;2022-12-07T13:13:31;7.72;;;5.82;;
29812;SDS011;16707;48.106;11.548;2022-12-07T13:22:34;9.55;;;5.90;;
29812;SDS011;16707;48.106;11.548;2022-12-07T13:25:10;9.50;;;5.68;;
29812;SDS011;16707;48.106;11.548;2022-12-07T13:27:48;9.52;;;5.30;;
29812;SDS011;16707;48.106;11.548;2022-12-07T13:30:22;8.57;;;5.60;;
29812;SDS011;16707;48.106;11.548;2022-12-07T13:32:52;8.50;;;5.68;;
29812;SDS011;16707;48.106;11.548;2022-12-07T13:35:28;9.10;;;5.35;;
29812;SDS011;16707;48.106;11.548;2022-12-07T13:37:57;10.45;;;5.32;;
29812;SDS011;16707;48.106;11.548;2022-12-07T13:40:24;9.70;;;5.30;;
29812;SDS011;16707;48.106;11.548;2022-12-07T13:42:58;10.82;;;5.78;;
29812;SDS011;16707;48.106;11.548;2022-12-07T13:45:26;8.98;;;5.65;;
29812;SDS011;16707;48.106;11.548;2022-12-07T13:48:08;6.78;;;4.80;;
29812;SDS011;16707;48.106;11.548;2022-12-07T13:50:42;8.45;;;5.15;;
29812;SDS011;16707;48.106;11.548;2022-12-07T13:53:11;7.72;;;5.10;;
29812;SDS011;16707;48.106;11.548;2022-12-07T13:55:44;7.85;;;4.85;;
29812;SDS011;16707;48.106;11.548;2022-12-07T13:58:13;9.07;;;6.00;;
29812;SDS011;16707;48.106;11.548;2022-12-07T14:00:41;9.02;;;5.75;;
29812;SDS011;16707;48.106;11.548;2022-12-07T14:03:29;9.15;;;4.75;;
29812;SDS011;16707;48.106;11.548;2022-12-07T14:06:13;7.78;;;5.00;;
29812;SDS011;16707;48.106;11.548;2022-12-07T14:08:43;9.45;;;5.43;;
29812;SDS011;16707;48.106;11.548;2022-12-07T14:11:13;10.05;;;6.20;;
29812;SDS011;16707;48.106;11.548;2022-12-07T14:13:57;8.88;;;5.47;;
29812;SDS011;16707;48.106;11.548;2022-12-07T14:16:26;12.80;;;5.50;;
29812;SDS011;16707;48.106;11.548;2022-12-07T14:18:55;8.60;;;5.40;;
29812;SDS011;16707;48.106;11.548;2022-12-07T14:21:24;6.88;;;5.05;;
29812;SDS011;16707;48.106;11.548;2022-12-07T14:24:09;9.60;;;5.50;;
29812;SDS011;16707;48.106;11.548;2022-12-07T14:26:40;8.98;;;5.80;;
29812;SDS011;16707;48.106;11.548;2022-12-07T14:29:20;10.20;;;5.68;;
29812;SDS011;16707;48.106;11.548;2022-12-07T14:31:55;9.27;;;5.20;;
29812;SDS011;16707;48.106;11.548;2022-12-07T14:34:23;11.15;;;5.63;;
29812;SDS011;16707;48.106;11.548;2022-12-07T14:36:50;11.57;;;6.22;;
29812;SDS011;16707;48.106;11.548;2022-12-07T14:39:18;10.85;;;6.32;;
29812;SDS011;16707;48.106;11.548;2022-12-07T14:41:45;8.45;;;5.97;;
29812;SDS011;16707;48.106;11.548;2022-12-07T14:44:18;12.02;;;6.10;;
29812;SDS011;16707;48.106;11.548;2022-12-07T14:46:48;14.55;;;5.57;;
29812;SDS011;16707;48.106;11.548;2022-12-07T14:49:16;9.13;;;6.22;;
29812;SDS011;16707;48.106;11.548;2022-12-07T14:51:43;11.85;;;5.22;;
29812;SDS011;16707;48.106;11.548;2022-12-07T14:54:13;9.23;;;5.63;;
29812;SDS011;16707;48.106;11.548;2022-12-07T14:56:42;10.30;;;6.20;;
29812;SDS011;16707;48.106;11.548;2022-12-07T14:59:10;8.35;;;5.45;;
29812;SDS011;16707;48.106;11.548;2022-12-07T15:01:39;8.93;;;6.00;;
29812;SDS011;16707;48.106;11.548;2022-12-07T15:04:06;9.25;;;6.38;;
29812;SDS011;16707;48.106;11.548;2022-12-07T15:06:33;11.38;;;6.45;;
29812;SDS011;16707;48.106;11.548;2022-12-07T15:09:00;8.73;;;6.07;;
29812;SDS011;16707;48.106;11.548;2022-12-07T15:11:27;9.10;;;5.97;;
29812;SDS011;16707;48.106;11.548;2022-12-07T15:13:54;11.43;;;6.78;;
29812;SDS011;16707;48.106;11.548;2022-12-07T15:16:38;9.98;;;6.45;;
29812;SDS011;16707;48.106;11.548;2022-12-07T15:19:10;12.70;;;6.78;;
29812;SDS011;16707;48.106;11.548;2022-12-07T15:21:40;10.65;;;6.53;;